sensor_id;sensor_type;location;lat;lon;timestamp;pressure;altitude;pressure_sealevel;temperature;humidity
36192;BME280;22233;42.708;23.360;2022-10-31T00:00:45;95883.47;;;16.87;48.50
36192;BME280;22233;42.708;23.360;2022-10-31T00:03:10;95889.25;;;16.73;49.02
36192;BME280;22233;42.708;23.360;2022-10-31T00:05:40;95890.44;;;16.39;50.07
36192;BME280;22233;42.708;23.360;2022-10-31T00:08:06;95885.81;;;16.64;49.20
36192;BME280;22233;42.708;23.360;2022-10-31T00:10:31;95878.28;;;16.73;48.89
36192;BME280;22233;42.708;23.360;2022-10-31T00:12:57;95870.28;;;16.68;48.87
36192;BME280;22233;42.708;23.360;2022-10-31T00:15:22;95883.56;;;16.78;48.99
36192;BME280;22233;42.708;23.360;2022-10-31T00:17:47;95882.09;;;16.35;50.21
36192;BME280;22233;42.708;23.360;2022-10-31T00:20:13;95881.09;;;16.40;50.99
36192;BME280;22233;42.708;23.360;2022-10-31T00:22:38;95879.91;;;16.29;50.60
36192;BME280;22233;42.708;23.360;2022-10-31T00:25:04;95887.47;;;16.32;51.02
36192;BME280;22233;42.708;23.360;2022-10-31T00:27:29;95880.25;;;15.73;52.34
36192;BME280;22233;42.708;23.360;2022-10-31T00:29:54;95856.47;;;15.86;51.53
36192;BME280;22233;42.708;23.360;2022-10-31T00:32:20;95881.44;;;15.84;51.36
36192;BME280;22233;42.708;23.360;2022-10-31T00:34:45;95884.31;;;16.21;51.07
36192;BME280;22233;42.708;23.360;2022-10-31T00:37:11;95878.81;;;16.42;50.42
36192;BME280;22233;42.708;23.360;2022-10-31T00:39:36;95878.94;;;16.12;51.22
36192;BME280;22233;42.708;23.360;2022-10-31T00:42:01;95888.13;;;16.29;50.72
36192;BME280;22233;42.708;23.360;2022-10-31T00:44:27;95871.47;;;16.34;50.77
36192;BME280;22233;42.708;23.360;2022-10-31T00:46:52;95879.34;;;16.35;50.79
36192;BME280;22233;42.708;23.360;2022-10-31T00:49:18;95887.72;;;15.64;52.37
36192;BME280;22233;42.708;23.360;2022-10-31T00:51:43;95888.41;;;15.31;53.10
36192;BME280;22233;42.708;23.360;2022-10-31T00:54:08;95886.50;;;15.52;52.42
36192;BME280;22233;42.708;23.360;2022-10-31T00:56:34;95884.44;;;15.49;52.84
36192;BME280;22233;42.708;23.360;2022-10-31T00:58:59;95860.56;;;15.29;53.02
36192;BME280;22233;42.708;23.360;2022-10-31T01:01:24;95883.28;;;15.50;52.95
36192;BME280;22233;42.708;23.360;2022-10-31T01:03:50;95884.47;;;15.20;53.85
36192;BME280;22233;42.708;23.360;2022-10-31T01:06:16;95874.91;;;15.26;53.45
36192;BME280;22233;42.708;23.360;2022-10-31T01:08:41;95884.53;;;15.32;53.30
36192;BME280;22233;42.708;23.360;2022-10-31T01:11:19;95890.75;;;15.41;53.20
36192;BME280;22233;42.708;23.360;2022-10-31T01:13:45;95881.72;;;15.20;53.37
36192;BME280;22233;42.708;23.360;2022-10-31T01:16:14;95896.16;;;14.99;54.10
36192;BME280;22233;42.708;23.360;2022-10-31T01:18:40;95893.78;;;15.18;53.87
36192;BME280;22233;42.708;23.360;2022-10-31T01:21:08;95887.75;;;15.04;53.82
36192;BME280;22233;42.708;23.360;2022-10-31T01:23:34;95901.28;;;15.01;53.75
36192;BME280;22233;42.708;23.360;2022-10-31T01:28:25;95904.63;;;15.06;53.83
36192;BME280;22233;42.708;23.360;2022-10-31T01:30:51;95907.69;;;14.75;55.16
36192;BME280;22233;42.708;23.360;2022-10-31T01:33:16;95898.16;;;14.81;55.00
36192;BME280;22233;42.708;23.360;2022-10-31T01:35:41;95899.03;;;14.55;55.92
36192;BME280;22233;42.708;23.360;2022-10-31T01:38:07;95896.31;;;14.38;56.10
36192;BME280;22233;42.708;23.360;2022-10-31T01:40:32;95894.31;;;14.00;56.86
36192;BME280;22233;42.708;23.360;2022-10-31T01:42:58;95903.63;;;13.90;57.07
36192;BME280;22233;42.708;23.360;2022-10-31T01:45:23;95911.84;;;13.73;57.74
36192;BME280;22233;42.708;23.360;2022-10-31T01:47:49;95908.56;;;13.36;58.35
36192;BME280;22233;42.708;23.360;2022-10-31T01:50:32;95906.06;;;13.74;58.34
36192;BME280;22233;42.708;23.360;2022-10-31T01:53:00;95910.03;;;13.51;58.67
36192;BME280;22233;42.708;23.360;2022-10-31T01:55:35;95908.13;;;13.43;58.59
36192;BME280;22233;42.708;23.360;2022-10-31T01:58:09;95898.97;;;13.65;58.26
36192;BME280;22233;42.708;23.360;2022-10-31T02:00:37;95900.09;;;13.81;58.02
36192;BME280;22233;42.708;23.360;2022-10-31T02:03:03;95899.59;;;14.05;57.26
36192;BME280;22233;42.708;23.360;2022-10-31T02:05:30;95903.94;;;14.15;57.36
36192;BME280;22233;42.708;23.360;2022-10-31T02:07:59;95906.34;;;14.08;56.95
36192;BME280;22233;42.708;23.360;2022-10-31T02:10:29;95887.72;;;14.01;57.54
36192;BME280;22233;42.708;23.360;2022-10-31T02:12:58;95906.31;;;14.16;57.20
36192;BME280;22233;42.708;23.360;2022-10-31T02:15:24;95896.22;;;14.08;57.10
36192;BME280;22233;42.708;23.360;2022-10-31T02:17:50;95914.06;;;14.23;57.38
36192;BME280;22233;42.708;23.360;2022-10-31T02:20:18;95911.94;;;14.20;57.03
36192;BME280;22233;42.708;23.360;2022-10-31T02:33:20;95911.19;;;13.85;59.01
36192;BME280;22233;42.708;23.360;2022-10-31T02:36:01;95931.56;;;13.96;58.39
36192;BME280;22233;42.708;23.360;2022-10-31T02:38:41;95922.25;;;13.88;57.87
36192;BME280;22233;42.708;23.360;2022-10-31T02:41:19;95930.78;;;13.95;58.24
36192;BME280;22233;42.708;23.360;2022-10-31T02:44:09;95936.09;;;13.83;59.16
36192;BME280;22233;42.708;23.360;2022-10-31T02:49:24;95934.00;;;13.63;59.07
36192;BME280;22233;42.708;23.360;2022-10-31T02:51:52;95937.16;;;13.38;60.04
36192;BME280;22233;42.708;23.360;2022-10-31T02:54:22;95928.53;;;13.63;59.58
36192;BME280;22233;42.708;23.360;2022-10-31T02:56:48;95930.25;;;13.50;59.96
36192;BME280;22233;42.708;23.360;2022-10-31T02:59:17;95931.28;;;13.14;61.21
36192;BME280;22233;42.708;23.360;2022-10-31T03:09:55;95940.09;;;13.86;59.40
36192;BME280;22233;42.708;23.360;2022-10-31T03:15:32;95930.78;;;13.95;59.13
36192;BME280;22233;42.708;23.360;2022-10-31T03:18:21;95931.59;;;13.78;58.76
36192;BME280;22233;42.708;23.360;2022-10-31T03:23:34;95942.53;;;13.78;59.04
36192;BME280;22233;42.708;23.360;2022-10-31T03:26:02;95948.78;;;13.88;59.00
36192;BME280;22233;42.708;23.360;2022-10-31T03:28:35;95943.47;;;13.83;59.72
36192;BME280;22233;42.708;23.360;2022-10-31T03:31:03;95937.19;;;13.82;58.93
36192;BME280;22233;42.708;23.360;2022-10-31T03:33:32;95946.53;;;13.98;58.99
36192;BME280;22233;42.708;23.360;2022-10-31T03:36:02;95946.19;;;14.00;58.93
36192;BME280;22233;42.708;23.360;2022-10-31T03:38:29;95957.94;;;14.01;58.45
36192;BME280;22233;42.708;23.360;2022-10-31T03:40:58;95951.69;;;14.09;58.41
36192;BME280;22233;42.708;23.360;2022-10-31T03:43:30;95957.63;;;14.11;58.13
36192;BME280;22233;42.708;23.360;2022-10-31T03:45:57;95963.22;;;14.14;58.15
36192;BME280;22233;42.708;23.360;2022-10-31T03:48:23;95961.97;;;13.94;58.85
36192;BME280;22233;42.708;23.360;2022-10-31T03:51:05;95961.97;;;14.21;58.32
36192;BME280;22233;42.708;23.360;2022-10-31T03:53:47;95957.13;;;14.17;58.32
36192;BME280;22233;42.708;23.360;2022-10-31T03:56:32;95961.63;;;14.22;57.69
36192;BME280;22233;42.708;23.360;2022-10-31T03:59:17;95959.38;;;14.24;57.57
36192;BME280;22233;42.708;23.360;2022-10-31T04:01:48;95970.94;;;14.21;58.17
36192;BME280;22233;42.708;23.360;2022-10-31T04:04:15;95970.28;;;14.24;57.35
36192;BME280;22233;42.708;23.360;2022-10-31T04:06:43;95971.72;;;14.30;57.90
36192;BME280;22233;42.708;23.360;2022-10-31T04:09:10;95960.34;;;14.11;58.27
36192;BME280;22233;42.708;23.360;2022-10-31T04:11:40;95980.25;;;14.20;58.32
36192;BME280;22233;42.708;23.360;2022-10-31T04:14:08;95974.31;;;14.27;57.79
36192;BME280;22233;42.708;23.360;2022-10-31T04:16:34;95978.84;;;14.23;58.07
36192;BME280;22233;42.708;23.360;2022-10-31T04:18:59;95978.81;;;14.31;57.67
36192;BME280;22233;42.708;23.360;2022-10-31T04:21:28;95984.91;;;14.28;58.36
36192;BME280;22233;42.708;23.360;2022-10-31T04:23:54;95965.81;;;13.93;59.11
36192;BME280;22233;42.708;23.360;2022-10-31T04:26:19;95953.13;;;13.97;58.24
36192;BME280;22233;42.708;23.360;2022-10-31T04:28:45;95988.31;;;14.25;57.72
36192;BME280;22233;42.708;23.360;2022-10-31T04:31:11;95982.03;;;14.25;57.85
36192;BME280;22233;42.708;23.360;2022-10-31T04:33:37;95990.06;;;14.12;58.75
36192;BME280;22233;42.708;23.360;2022-10-31T04:36:02;95985.88;;;13.89;58.86
36192;BME280;22233;42.708;23.360;2022-10-31T04:38:28;95975.91;;;13.67;59.28
36192;BME280;22233;42.708;23.360;2022-10-31T04:40:53;95986.47;;;13.42;60.21
36192;BME280;22233;42.708;23.360;2022-10-31T04:43:19;95987.22;;;13.34;60.85
36192;BME280;22233;42.708;23.360;2022-10-31T04:45:44;95998.34;;;13.46;60.60
36192;BME280;22233;42.708;23.360;2022-10-31T04:48:10;95995.75;;;13.41;60.37
36192;BME280;22233;42.708;23.360;2022-10-31T04:50:35;95997.63;;;13.32;60.29
36192;BME280;22233;42.708;23.360;2022-10-31T04:53:00;96003.63;;;13.51;59.72
36192;BME280;22233;42.708;23.360;2022-10-31T04:55:26;95997.19;;;13.38;59.99
36192;BME280;22233;42.708;23.360;2022-10-31T04:57:51;96003.84;;;13.24;60.32
36192;BME280;22233;42.708;23.360;2022-10-31T05:00:18;96001.34;;;13.36;59.61
36192;BME280;22233;42.708;23.360;2022-10-31T05:02:48;96005.81;;;13.32;60.71
36192;BME280;22233;42.708;23.360;2022-10-31T05:05:14;96002.63;;;12.98;61.31
36192;BME280;22233;42.708;23.360;2022-10-31T05:07:41;95994.72;;;12.88;61.63
36192;BME280;22233;42.708;23.360;2022-10-31T05:10:12;96005.84;;;13.01;61.16
36192;BME280;22233;42.708;23.360;2022-10-31T05:12:40;96009.63;;;12.91;62.13
36192;BME280;22233;42.708;23.360;2022-10-31T05:15:10;96017.28;;;12.80;62.38
36192;BME280;22233;42.708;23.360;2022-10-31T05:17:35;96020.16;;;13.06;61.53
36192;BME280;22233;42.708;23.360;2022-10-31T05:20:01;96023.94;;;12.96;61.08
36192;BME280;22233;42.708;23.360;2022-10-31T05:22:26;96023.16;;;12.96;61.54
36192;BME280;22233;42.708;23.360;2022-10-31T05:24:51;96016.25;;;12.98;61.43
36192;BME280;22233;42.708;23.360;2022-10-31T05:27:17;96029.41;;;12.96;62.05
36192;BME280;22233;42.708;23.360;2022-10-31T05:29:42;96031.44;;;12.91;62.12
36192;BME280;22233;42.708;23.360;2022-10-31T05:32:07;96028.72;;;12.91;61.48
36192;BME280;22233;42.708;23.360;2022-10-31T05:34:33;96024.63;;;13.02;61.45
36192;BME280;22233;42.708;23.360;2022-10-31T05:36:58;96005.66;;;12.97;60.92
36192;BME280;22233;42.708;23.360;2022-10-31T05:39:23;96040.69;;;12.81;62.54
36192;BME280;22233;42.708;23.360;2022-10-31T05:41:49;96034.06;;;12.73;62.51
36192;BME280;22233;42.708;23.360;2022-10-31T05:44:14;96039.44;;;12.56;62.45
36192;BME280;22233;42.708;23.360;2022-10-31T05:46:40;96042.91;;;12.48;63.33
36192;BME280;22233;42.708;23.360;2022-10-31T05:49:05;96032.78;;;12.48;62.88
36192;BME280;22233;42.708;23.360;2022-10-31T05:51:31;96047.88;;;12.77;62.71
36192;BME280;22233;42.708;23.360;2022-10-31T05:53:56;96038.53;;;12.69;62.16
36192;BME280;22233;42.708;23.360;2022-10-31T05:56:21;96036.94;;;12.68;62.39
36192;BME280;22233;42.708;23.360;2022-10-31T05:58:47;96046.34;;;12.85;62.79
36192;BME280;22233;42.708;23.360;2022-10-31T06:01:12;96043.16;;;12.91;62.15
36192;BME280;22233;42.708;23.360;2022-10-31T06:03:37;96056.53;;;13.02;61.81
36192;BME280;22233;42.708;23.360;2022-10-31T06:06:03;96049.38;;;12.83;62.66
36192;BME280;22233;42.708;23.360;2022-10-31T06:08:28;96060.19;;;12.97;64.34
36192;BME280;22233;42.708;23.360;2022-10-31T06:10:54;96053.50;;;13.03;62.98
36192;BME280;22233;42.708;23.360;2022-10-31T06:13:19;96053.41;;;13.17;62.97
36192;BME280;22233;42.708;23.360;2022-10-31T06:15:45;96057.72;;;13.41;61.63
36192;BME280;22233;42.708;23.360;2022-10-31T06:18:10;96070.59;;;13.49;60.98
36192;BME280;22233;42.708;23.360;2022-10-31T06:20:36;96074.97;;;13.58;61.03
36192;BME280;22233;42.708;23.360;2022-10-31T06:23:01;96087.06;;;13.84;62.14
36192;BME280;22233;42.708;23.360;2022-10-31T06:25:28;96062.22;;;14.03;59.50
36192;BME280;22233;42.708;23.360;2022-10-31T06:27:54;96072.00;;;13.95;59.35
36192;BME280;22233;42.708;23.360;2022-10-31T06:30:20;96081.28;;;13.76;60.00
36192;BME280;22233;42.708;23.360;2022-10-31T06:32:45;96095.13;;;13.89;63.54
36192;BME280;22233;42.708;23.360;2022-10-31T06:35:11;96087.16;;;14.27;59.00
36192;BME280;22233;42.708;23.360;2022-10-31T06:37:37;96091.34;;;14.25;59.76
36192;BME280;22233;42.708;23.360;2022-10-31T06:40:02;96100.50;;;14.37;60.99
36192;BME280;22233;42.708;23.360;2022-10-31T06:42:28;96085.44;;;14.57;57.39
36192;BME280;22233;42.708;23.360;2022-10-31T06:44:53;96101.84;;;14.66;57.68
36192;BME280;22233;42.708;23.360;2022-10-31T06:47:19;96089.44;;;14.69;57.53
36192;BME280;22233;42.708;23.360;2022-10-31T06:49:44;96101.84;;;14.75;57.46
36192;BME280;22233;42.708;23.360;2022-10-31T06:52:10;96095.38;;;14.45;57.78
36192;BME280;22233;42.708;23.360;2022-10-31T06:54:35;96097.31;;;14.70;57.55
36192;BME280;22233;42.708;23.360;2022-10-31T06:57:00;96077.69;;;14.51;58.54
36192;BME280;22233;42.708;23.360;2022-10-31T06:59:26;96108.56;;;14.95;58.79
36192;BME280;22233;42.708;23.360;2022-10-31T07:01:51;96097.31;;;15.05;58.73
36192;BME280;22233;42.708;23.360;2022-10-31T07:04:16;96101.88;;;15.31;56.90
36192;BME280;22233;42.708;23.360;2022-10-31T07:06:42;96088.88;;;15.19;60.23
36192;BME280;22233;42.708;23.360;2022-10-31T07:09:07;96085.53;;;15.13;56.81
36192;BME280;22233;42.708;23.360;2022-10-31T07:11:33;96093.69;;;15.31;56.88
36192;BME280;22233;42.708;23.360;2022-10-31T07:13:58;96068.41;;;15.34;56.62
36192;BME280;22233;42.708;23.360;2022-10-31T07:16:24;96090.56;;;15.50;56.49
36192;BME280;22233;42.708;23.360;2022-10-31T07:18:49;96086.78;;;15.72;55.93
36192;BME280;22233;42.708;23.360;2022-10-31T07:21:15;96080.94;;;15.82;55.52
36192;BME280;22233;42.708;23.360;2022-10-31T07:23:40;96060.03;;;15.69;55.83
36192;BME280;22233;42.708;23.360;2022-10-31T07:26:06;96068.53;;;15.85;56.04
36192;BME280;22233;42.708;23.360;2022-10-31T07:28:31;96072.50;;;15.57;56.68
36192;BME280;22233;42.708;23.360;2022-10-31T07:30:57;96058.41;;;15.38;57.27
36192;BME280;22233;42.708;23.360;2022-10-31T07:33:23;96064.94;;;15.54;56.97
36192;BME280;22233;42.708;23.360;2022-10-31T07:35:51;96062.78;;;15.69;56.92
36192;BME280;22233;42.708;23.360;2022-10-31T07:38:17;96077.38;;;15.90;56.46
36192;BME280;22233;42.708;23.360;2022-10-31T07:40:43;96062.75;;;16.07;56.02
36192;BME280;22233;42.708;23.360;2022-10-31T07:43:11;96074.47;;;16.16;56.32
36192;BME280;22233;42.708;23.360;2022-10-31T07:45:36;96072.09;;;16.36;54.79
36192;BME280;22233;42.708;23.360;2022-10-31T07:48:01;96069.91;;;16.42;55.12
36192;BME280;22233;42.708;23.360;2022-10-31T07:50:30;96067.72;;;16.56;54.82
36192;BME280;22233;42.708;23.360;2022-10-31T07:53:02;96072.50;;;16.80;54.48
36192;BME280;22233;42.708;23.360;2022-10-31T07:55:28;96066.38;;;16.83;54.47
36192;BME280;22233;42.708;23.360;2022-10-31T07:58:06;96056.19;;;16.84;54.62
36192;BME280;22233;42.708;23.360;2022-10-31T08:00:33;96064.13;;;16.97;54.47
36192;BME280;22233;42.708;23.360;2022-10-31T08:02:59;96078.88;;;16.93;54.82
36192;BME280;22233;42.708;23.360;2022-10-31T08:05:25;96076.44;;;17.12;54.10
36192;BME280;22233;42.708;23.360;2022-10-31T08:07:51;96066.94;;;17.22;53.62
36192;BME280;22233;42.708;23.360;2022-10-31T08:10:16;96078.56;;;17.52;54.06
36192;BME280;22233;42.708;23.360;2022-10-31T08:12:42;96074.09;;;17.60;53.71
36192;BME280;22233;42.708;23.360;2022-10-31T08:15:08;96057.72;;;17.39;54.18
36192;BME280;22233;42.708;23.360;2022-10-31T08:17:37;96075.59;;;17.57;56.27
36192;BME280;22233;42.708;23.360;2022-10-31T08:20:04;96063.69;;;17.66;55.00
36192;BME280;22233;42.708;23.360;2022-10-31T08:22:29;96067.03;;;17.59;56.25
36192;BME280;22233;42.708;23.360;2022-10-31T08:24:55;96070.25;;;18.10;53.73
36192;BME280;22233;42.708;23.360;2022-10-31T08:27:20;96058.56;;;18.13;54.70
36192;BME280;22233;42.708;23.360;2022-10-31T08:29:46;96065.94;;;18.50;51.99
36192;BME280;22233;42.708;23.360;2022-10-31T08:32:12;96064.53;;;18.56;52.52
36192;BME280;22233;42.708;23.360;2022-10-31T08:34:37;96068.88;;;18.69;50.78
36192;BME280;22233;42.708;23.360;2022-10-31T08:37:03;96061.88;;;18.19;51.50
36192;BME280;22233;42.708;23.360;2022-10-31T08:39:28;96067.34;;;18.44;53.21
36192;BME280;22233;42.708;23.360;2022-10-31T08:41:54;96047.09;;;18.64;50.72
36192;BME280;22233;42.708;23.360;2022-10-31T08:44:19;96055.16;;;18.85;51.87
36192;BME280;22233;42.708;23.360;2022-10-31T08:46:44;96070.78;;;19.09;51.33
36192;BME280;22233;42.708;23.360;2022-10-31T08:49:10;96058.53;;;19.23;50.52
36192;BME280;22233;42.708;23.360;2022-10-31T08:51:35;96065.84;;;19.31;51.12
36192;BME280;22233;42.708;23.360;2022-10-31T08:54:01;96063.66;;;19.52;49.25
36192;BME280;22233;42.708;23.360;2022-10-31T08:56:26;96058.13;;;19.52;49.14
36192;BME280;22233;42.708;23.360;2022-10-31T08:58:53;96051.91;;;19.55;49.50
36192;BME280;22233;42.708;23.360;2022-10-31T09:01:18;96060.38;;;19.94;48.87
36192;BME280;22233;42.708;23.360;2022-10-31T09:03:44;96052.03;;;19.75;50.00
36192;BME280;22233;42.708;23.360;2022-10-31T09:06:09;96052.19;;;19.50;49.01
36192;BME280;22233;42.708;23.360;2022-10-31T09:08:35;96066.06;;;19.70;50.62
36192;BME280;22233;42.708;23.360;2022-10-31T09:11:01;96059.19;;;19.64;49.33
36192;BME280;22233;42.708;23.360;2022-10-31T09:13:27;96069.06;;;20.12;48.85
36192;BME280;22233;42.708;23.360;2022-10-31T09:15:52;96039.78;;;20.08;48.20
36192;BME280;22233;42.708;23.360;2022-10-31T09:18:20;96043.81;;;20.30;48.03
36192;BME280;22233;42.708;23.360;2022-10-31T09:20:46;96048.34;;;20.03;49.29
36192;BME280;22233;42.708;23.360;2022-10-31T09:23:20;96052.78;;;20.07;48.83
36192;BME280;22233;42.708;23.360;2022-10-31T09:25:47;96036.00;;;19.97;48.52
36192;BME280;22233;42.708;23.360;2022-10-31T09:28:15;96045.09;;;19.81;49.06
36192;BME280;22233;42.708;23.360;2022-10-31T09:30:40;96050.31;;;19.70;49.41
36192;BME280;22233;42.708;23.360;2022-10-31T09:33:09;96031.19;;;19.93;51.61
36192;BME280;22233;42.708;23.360;2022-10-31T09:35:36;96050.53;;;20.29;48.31
36192;BME280;22233;42.708;23.360;2022-10-31T09:38:06;96044.19;;;20.64;48.40
36192;BME280;22233;42.708;23.360;2022-10-31T09:40:43;96044.50;;;20.43;47.96
36192;BME280;22233;42.708;23.360;2022-10-31T09:43:22;96045.41;;;20.86;47.44
36192;BME280;22233;42.708;23.360;2022-10-31T09:46:07;96037.25;;;21.12;46.39
36192;BME280;22233;42.708;23.360;2022-10-31T09:49:05;96042.28;;;21.07;46.06
36192;BME280;22233;42.708;23.360;2022-10-31T09:51:33;96025.72;;;21.07;46.57
36192;BME280;22233;42.708;23.360;2022-10-31T09:54:05;96036.50;;;21.35;46.78
36192;BME280;22233;42.708;23.360;2022-10-31T09:56:33;96030.09;;;21.31;46.76
36192;BME280;22233;42.708;23.360;2022-10-31T09:59:02;96032.97;;;21.58;46.04
36192;BME280;22233;42.708;23.360;2022-10-31T10:01:48;96033.91;;;21.92;45.67
36192;BME280;22233;42.708;23.360;2022-10-31T10:06:46;96021.00;;;22.03;44.19
36192;BME280;22233;42.708;23.360;2022-10-31T10:09:14;96015.09;;;22.28;44.28
36192;BME280;22233;42.708;23.360;2022-10-31T10:11:48;96011.56;;;22.61;43.55
36192;BME280;22233;42.708;23.360;2022-10-31T10:30:15;95974.97;;;23.57;41.99
36192;BME280;22233;42.708;23.360;2022-10-31T10:32:59;95993.97;;;23.55;41.44
36192;BME280;22233;42.708;23.360;2022-10-31T10:35:32;95992.25;;;23.88;39.97
36192;BME280;22233;42.708;23.360;2022-10-31T10:38:10;95967.34;;;23.95;40.56
36192;BME280;22233;42.708;23.360;2022-10-31T10:40:38;95972.56;;;24.07;40.76
36192;BME280;22233;42.708;23.360;2022-10-31T10:51:53;95959.88;;;24.06;39.85
36192;BME280;22233;42.708;23.360;2022-10-31T10:59:30;95960.66;;;24.03;39.06
36192;BME280;22233;42.708;23.360;2022-10-31T11:01:56;95949.19;;;24.05;39.05
36192;BME280;22233;42.708;23.360;2022-10-31T11:04:35;95956.03;;;24.32;38.77
36192;BME280;22233;42.708;23.360;2022-10-31T11:09:26;95946.56;;;24.33;38.92
36192;BME280;22233;42.708;23.360;2022-10-31T11:11:52;95951.25;;;24.19;38.37
36192;BME280;22233;42.708;23.360;2022-10-31T11:14:19;95944.34;;;24.71;38.33
36192;BME280;22233;42.708;23.360;2022-10-31T11:16:48;95947.94;;;24.83;37.64
36192;BME280;22233;42.708;23.360;2022-10-31T11:19:22;95929.31;;;24.90;37.25
36192;BME280;22233;42.708;23.360;2022-10-31T11:21:49;95945.66;;;25.24;36.31
36192;BME280;22233;42.708;23.360;2022-10-31T11:24:17;95919.06;;;25.34;36.46
36192;BME280;22233;42.708;23.360;2022-10-31T11:26:45;95921.06;;;25.51;36.04
36192;BME280;22233;42.708;23.360;2022-10-31T11:29:14;95931.34;;;25.87;36.31
36192;BME280;22233;42.708;23.360;2022-10-31T11:31:41;95926.97;;;25.93;35.45
36192;BME280;22233;42.708;23.360;2022-10-31T11:34:24;95914.25;;;25.13;36.04
36192;BME280;22233;42.708;23.360;2022-10-31T11:36:52;95915.00;;;24.88;37.01
36192;BME280;22233;42.708;23.360;2022-10-31T11:39:22;95915.47;;;25.37;36.08
36192;BME280;22233;42.708;23.360;2022-10-31T11:41:50;95909.09;;;25.65;36.05
36192;BME280;22233;42.708;23.360;2022-10-31T11:44:30;95908.66;;;25.99;35.53
36192;BME280;22233;42.708;23.360;2022-10-31T11:47:00;95908.72;;;25.31;36.02
36192;BME280;22233;42.708;23.360;2022-10-31T11:49:31;95909.13;;;25.37;35.93
36192;BME280;22233;42.708;23.360;2022-10-31T11:52:34;95901.53;;;25.80;35.88
36192;BME280;22233;42.708;23.360;2022-10-31T11:54:58;95898.75;;;25.95;35.35
36192;BME280;22233;42.708;23.360;2022-10-31T11:57:30;95896.25;;;26.25;34.85
36192;BME280;22233;42.708;23.360;2022-10-31T12:00:01;95903.66;;;26.68;33.76
36192;BME280;22233;42.708;23.360;2022-10-31T12:02:29;95884.06;;;25.94;35.09
36192;BME280;22233;42.708;23.360;2022-10-31T12:07:19;95894.00;;;25.66;35.09
36192;BME280;22233;42.708;23.360;2022-10-31T12:09:45;95889.59;;;25.98;34.85
36192;BME280;22233;42.708;23.360;2022-10-31T12:15:29;95890.94;;;26.63;33.87
36192;BME280;22233;42.708;23.360;2022-10-31T12:39:41;95872.69;;;27.67;32.06
36192;BME280;22233;42.708;23.360;2022-10-31T12:42:29;95884.78;;;27.49;32.37
36192;BME280;22233;42.708;23.360;2022-10-31T12:59:07;95890.91;;;27.34;32.92
36192;BME280;22233;42.708;23.360;2022-10-31T13:01:43;95884.09;;;27.38;32.49
36192;BME280;22233;42.708;23.360;2022-10-31T13:06:58;95872.47;;;27.88;31.48
36192;BME280;22233;42.708;23.360;2022-10-31T13:09:36;95883.72;;;28.19;31.42
36192;BME280;22233;42.708;23.360;2022-10-31T13:12:08;95885.28;;;28.55;31.39
36192;BME280;22233;42.708;23.360;2022-10-31T13:14:42;95880.94;;;28.19;31.28
36192;BME280;22233;42.708;23.360;2022-10-31T13:17:21;95871.81;;;28.46;30.71
36192;BME280;22233;42.708;23.360;2022-10-31T13:19:49;95884.22;;;28.76;30.27
36192;BME280;22233;42.708;23.360;2022-10-31T13:22:20;95885.91;;;28.70;30.85
36192;BME280;22233;42.708;23.360;2022-10-31T13:24:59;95882.63;;;28.75;30.30
36192;BME280;22233;42.708;23.360;2022-10-31T13:33:03;95878.53;;;29.10;30.05
36192;BME280;22233;42.708;23.360;2022-10-31T13:35:43;95879.78;;;29.33;30.13
36192;BME280;22233;42.708;23.360;2022-10-31T13:44:20;95884.94;;;29.58;29.07
36192;BME280;22233;42.708;23.360;2022-10-31T13:46:46;95875.81;;;29.54;29.79
36192;BME280;22233;42.708;23.360;2022-10-31T13:49:37;95877.00;;;29.56;29.32
36192;BME280;22233;42.708;23.360;2022-10-31T13:54:36;95879.03;;;29.01;29.64
36192;BME280;22233;42.708;23.360;2022-10-31T13:57:06;95873.31;;;29.12;29.88
36192;BME280;22233;42.708;23.360;2022-10-31T13:59:35;95885.16;;;29.47;29.49
36192;BME280;22233;42.708;23.360;2022-10-31T14:02:14;95889.41;;;29.55;29.98
36192;BME280;22233;42.708;23.360;2022-10-31T14:07:45;95886.81;;;29.17;30.64
36192;BME280;22233;42.708;23.360;2022-10-31T14:10:35;95885.94;;;29.24;31.37
36192;BME280;22233;42.708;23.360;2022-10-31T14:13:41;95890.50;;;29.11;30.87
36192;BME280;22233;42.708;23.360;2022-10-31T14:16:24;95893.28;;;29.11;30.88
36192;BME280;22233;42.708;23.360;2022-10-31T14:19:04;95897.41;;;29.02;31.68
36192;BME280;22233;42.708;23.360;2022-10-31T14:21:40;95895.56;;;29.19;30.88
36192;BME280;22233;42.708;23.360;2022-10-31T14:29:43;95900.31;;;29.73;30.33
36192;BME280;22233;42.708;23.360;2022-10-31T14:34:42;95899.81;;;29.55;30.80
36192;BME280;22233;42.708;23.360;2022-10-31T14:37:28;95887.84;;;29.54;30.46
36192;BME280;22233;42.708;23.360;2022-10-31T14:40:23;95899.41;;;29.56;30.67
36192;BME280;22233;42.708;23.360;2022-10-31T14:46:03;95897.97;;;29.21;30.99
36192;BME280;22233;42.708;23.360;2022-10-31T14:49:00;95898.09;;;29.10;31.28
36192;BME280;22233;42.708;23.360;2022-10-31T14:51:47;95900.47;;;29.12;31.54
36192;BME280;22233;42.708;23.360;2022-10-31T14:54:17;95896.72;;;28.95;31.91
36192;BME280;22233;42.708;23.360;2022-10-31T14:56:51;95901.38;;;28.78;32.29
36192;BME280;22233;42.708;23.360;2022-10-31T14:59:22;95903.97;;;28.61;32.28
36192;BME280;22233;42.708;23.360;2022-10-31T15:01:56;95887.09;;;28.38;32.57
36192;BME280;22233;42.708;23.360;2022-10-31T15:04:24;95899.22;;;28.24;32.91
36192;BME280;22233;42.708;23.360;2022-10-31T15:07:07;95895.09;;;28.01;33.15
36192;BME280;22233;42.708;23.360;2022-10-31T15:09:35;95902.94;;;27.68;33.22
36192;BME280;22233;42.708;23.360;2022-10-31T15:14:50;95896.16;;;27.24;33.53
36192;BME280;22233;42.708;23.360;2022-10-31T15:17:16;95906.22;;;27.07;34.51
36192;BME280;22233;42.708;23.360;2022-10-31T15:19:42;95911.97;;;26.79;35.81